Tropical Cyclones
[Index]
Main Index Home Page Stock Weather Photos Extreme Storms Discussion Storm News and Storm Chasing Reports Tropical Cyclones / Hurricanes / Typhoons Weather Data and Links Wild Fires / Bushfires Weather Observation Techniques Weather Picture Catalogue Tornado Pictures and Reports Stock Video Footage and DVDs for sale
Season 2014-2015 Tropical Cyclone RAQUEL Track Map
Season 2014-2015 Summaries (Operational Data): [AU] [SIO] [SPAC] [SH]
<<- Previous TC | 2014-2015 Season | Next TC ->>

click for intensity scale information  Lat/long Grid: Show Hide

 Date Labels: Show Hide

Operational Tropical Cyclone Data : JTWC Advisories

Name: RAQUEL
Number: 1525

24 Jun 2015 06:00 UTC to 05 Jul 2015 06:00 UTC

    date/time    lat    long     hPa   cat  kts
2015-06-24 06    4.5   162.0    1010         15          
2015-06-24 12    4.6   162.4    1010         15          
2015-06-24 18    4.8   162.7    1010         15          
2015-06-25 00    5.0   163.0    1010         15          
2015-06-25 06    5.2   163.4    1010         15          
2015-06-25 12    4.9   163.7    1007         20          
2015-06-25 18    4.4   164.5    1007         20          
2015-06-26 00    3.0   165.9    1010         15          
2015-06-26 06    4.1   166.1    1010         15          
2015-06-26 12    4.4   165.8    1010         15          
2015-06-26 18    3.7   164.9    1010         15          
2015-06-27 00    3.8   163.7    1010         15          
2015-06-27 06    3.8   164.3    1010         15          
2015-06-27 12    3.9   164.1    1007         20          
2015-06-27 18    4.1   163.8    1007         20          
2015-06-28 00    3.5   164.5    1007         20          
2015-06-28 06    3.9   164.1    1007         20          
2015-06-28 12    4.3   163.6    1005         25          
2015-06-28 18    4.6   163.1    1005         25          
2015-06-29 00    4.3   162.3    1004         25          
2015-06-29 06    4.2   162.0    1004         25          
2015-06-29 12    4.2   161.7    1004         25          
2015-06-29 18    4.3   161.3    1004         25          
2015-06-30 00    4.2   160.8    1000         30          
2015-06-30 06    4.8   160.5    1000         30          
2015-06-30 12    5.6   160.0     996    1    35          
2015-06-30 18    5.9   159.7     996    1    35          
2015-07-01 00    6.3   159.4            1    45          
2015-07-01 06    6.6   159.1            1    45          
2015-07-01 12    7.1   159.0            1    45          
2015-07-01 18    6.8   159.3            1    45          
2015-07-02 00    6.7   159.7            1    45          
2015-07-02 06    6.4   160.1            1    35          
2015-07-02 12    6.0   160.5            1    35          
2015-07-02 18    6.3   160.6            1    35          
2015-07-03 00    6.7   160.7            1    35          
2015-07-03 06    7.3   160.8            1    35          
2015-07-03 12    7.9   160.7            1    35          
2015-07-03 18    8.7   160.2            1    35          
2015-07-04 00    9.0   159.5                 30          
2015-07-04 12    8.9   158.1    1000         30          
2015-07-05 00    9.8   157.4     997         30          
2015-07-05 06    8.7   158.1    1002         25          
Winds are 10-min average.

Tropical cyclone tracks developed by Michael Bath using operational warnings and advisories and Google Maps.


[Australian Severe Weather index] [Copyright Notice] [Email Contacts] [Search This Site] [Privacy Policy]
Document: tropical_cyclone_raquel.htm Updated: 2 May 2017